Flight Track Log - Related Links

Times and Time Zones

All times are in EDT time to prevent confusion due to time zone crossing. See the UAL582 flight status page for this flight to view local times or setup timezone preferences in your user account.

Time Position Orientation Groundspeed Altitude Reporting Facility
EDT Latitude Longitude Course Direction KTS MPH feet Rate Location/Type
Tue 09:53:55 PM 42.0000 -87.8833 180° South 139 160 1,700  Level Chicago TRACON
Tue 09:54:55 PM 42.0000 -87.8333 90° East 205 236 3,100 1,650 Climbing Chicago TRACON
Tue 09:55:55 PM 41.9333 -87.8167 169° South 262 302 5,000 1,660 Climbing Chicago TRACON
Tue 09:56:00 PM 41.6469 -87.7434 180° South  Level Estimated
Tue 09:57:00 PM 41.5353 -87.6893 176° South  Level Estimated
Tue 09:58:00 PM 41.4237 -87.6355 187° South  Level Estimated
Tue 09:58:03 PM 41.7828 -87.8339 185° South 263 303 8,300  Level Chicago Center
Tue 09:59:00 PM 41.3120 -87.5818 180° South  Level Estimated
Tue 09:59:04 PM 41.7056 -87.8425 185° South 277 319 11,300  Level Chicago Center
Tue 10:00:06 PM 41.6192 -87.8531 185° South 306 352 13,300 2,244 Climbing Chicago Center
Tue 10:01:07 PM 41.5189 -87.8653 185° South 353 406 15,900 2,656 Climbing Chicago Center
Tue 10:02:08 PM 41.3933 -87.8797 185° South 370 426 18,700 2,557 Climbing Chicago Center
Tue 10:03:09 PM 41.2831 -87.8886 183° South 389 448 21,100 2,000 Climbing Chicago Center
Tue 10:04:11 PM 41.1711 -87.8617 170° South 408 470 22,800 1,707 Climbing Chicago Center
Tue 10:05:12 PM 41.0575 -87.8331 169° South 415 478 24,600 1,623 Climbing Chicago Center
Tue 10:06:13 PM 40.9406 -87.8028 169° South 424 488 26,100 1,512 Climbing Chicago Center
Tue 10:07:15 PM 40.8200 -87.7733 170° South 440 506 27,700 1,415 Climbing Chicago Center
Tue 10:08:16 PM 40.6986 -87.7428 169° South 443 510 29,000 1,328 Climbing Chicago Center
Tue 10:09:17 PM 40.5761 -87.7125 169° South 449 517 30,400 1,279 Climbing Chicago Center
Tue 10:10:18 PM 40.4519 -87.6819 169° South 455 524 31,600 1,361 Climbing Chicago Center
Tue 10:10:54 PM 40.3547 -87.6581 169° South 455 524 32,600 1,469 Climbing Indianapolis Center
Tue 10:11:56 PM 40.2292 -87.6292 170° South 456 525 34,000 1,241 Climbing Indianapolis Center
Tue 10:12:21 PM 40.1789 -87.6139 167° South 452 520 34,400 1,082 Climbing Chicago Center
Tue 10:12:57 PM 40.1064 -87.5978 170° South 451 519 35,100 1,113 Climbing Indianapolis Center
Tue 10:13:58 PM 39.9833 -87.5669 169° South 449 517 36,200 1,033 Climbing Indianapolis Center
Tue 10:14:59 PM 39.8617 -87.5383 170° South 444 511 37,200 885 Climbing Indianapolis Center
Tue 10:16:00 PM 39.7400 -87.5086 169° South 443 510 38,000 787 Climbing Indianapolis Center
Tue 10:17:01 PM 39.6208 -87.4806 170° South 437 503 38,800 492 Climbing Indianapolis Center
Tue 10:18:02 PM 39.5017 -87.4517 169° South 433 498 39,000 98 Climbing Indianapolis Center
Tue 10:19:03 PM 39.3822 -87.4231 170° South 434 499 39,000  Level Indianapolis Center
Tue 10:20:04 PM 39.2625 -87.3939 169° South 437 503 39,000  Level Indianapolis Center
Tue 10:21:05 PM 39.1425 -87.3664 170° South 436 502 39,000  Level Indianapolis Center
Tue 10:22:06 PM 39.0233 -87.3378 169° South 434 499 39,000  Level Indianapolis Center
Tue 10:23:07 PM 38.9039 -87.3108 170° South 434 499 39,000  Level Indianapolis Center
Tue 10:24:08 PM 38.7844 -87.2819 169° South 435 501 39,000  Level Indianapolis Center
Tue 10:25:09 PM 38.6639 -87.2539 170° South 439 505 39,000  Level Indianapolis Center
Tue 10:26:10 PM 38.5200 -87.2206 170° South 438 504 39,000  Level Indianapolis Center
Tue 10:27:11 PM 38.4008 -87.1931 170° South 440 506 39,000  Level Indianapolis Center
Tue 10:28:12 PM 38.2792 -87.1653 170° South 440 506 39,000  Level Indianapolis Center
Tue 10:29:13 PM 38.1653 -87.1392 170° South 441 507 39,000  Level Indianapolis Center
Tue 10:30:14 PM 38.0456 -87.1114 170° South 439 505 39,000  Level Indianapolis Center
Tue 10:31:15 PM 37.9253 -87.0847 170° South 439 505 39,000  Level Indianapolis Center
Tue 10:32:16 PM 37.8047 -87.0575 170° South 439 505 39,000  Level Indianapolis Center
Tue 10:33:17 PM 37.6861 -87.0300 170° South 434 499 39,000  Level Indianapolis Center
Tue 10:33:44 PM 37.6161 -87.0167 171° South 433 498 39,000  Level Memphis Center
Tue 10:34:44 PM 37.4986 -86.9875 169° South 427 491 39,000  Level Memphis Center
Tue 10:35:44 PM 37.3917 -86.9661 171° South 433 498 39,000  Level Memphis Center
Tue 10:36:44 PM 37.2742 -86.9372 169° South 428 493 39,000  Level Memphis Center
Tue 10:37:44 PM 37.1569 -86.9136 171° South 433 498 39,000  Level Memphis Center
Tue 10:38:44 PM 37.0417 -86.8847 169° South 433 498 39,000  Level Memphis Center
Tue 10:39:44 PM 36.9222 -86.8589 170° South 433 498 39,000  Level Memphis Center
Tue 10:40:44 PM 36.8006 -86.8331 170° South 433 498 39,000  Level Memphis Center
Tue 10:41:44 PM 36.6703 -86.8025 169° South 433 498 39,000  Level Memphis Center
Tue 10:42:44 PM 36.5508 -86.7742 169° South 433 498 39,000  Level Memphis Center
Tue 10:43:44 PM 36.4269 -86.7461 170° South 438 504 39,000  Level Memphis Center
Tue 10:44:44 PM 36.3011 -86.7183 170° South 458 527 39,000  Level Memphis Center
Tue 10:45:44 PM 36.1919 -86.6950 170° South 465 535 39,000  Level Memphis Center
Tue 10:46:44 PM 36.0742 -86.6539 164° South 448 516 39,000  Level Memphis Center
Tue 10:47:44 PM 35.9597 -86.5950 157° South 442 509 39,000  Level Memphis Center
Tue 10:49:42 PM 35.7192 -86.4764 158° South 472 543 39,000  Level Atlanta Center
Tue 10:50:42 PM 35.6036 -86.4192 158° South 467 537 39,000  Level Atlanta Center
Tue 10:51:42 PM 35.4897 -86.3625 158° South 462 532 39,000  Level Atlanta Center
Tue 10:52:42 PM 35.3700 -86.3031 158° South 457 526 39,000  Level Atlanta Center
Tue 10:53:42 PM 35.2561 -86.2464 158° South 457 526 39,000  Level Atlanta Center
Tue 10:54:42 PM 35.1383 -86.1925 159° South 452 520 39,000  Level Atlanta Center
Tue 10:55:42 PM 35.0306 -86.1442 160° South 452 520 39,000  Level Atlanta Center
Tue 10:56:42 PM 34.9086 -86.0778 156° South 446 513 39,000  Level Atlanta Center
Tue 10:57:42 PM 34.7906 -86.0217 159° South 446 513 39,000  Level Atlanta Center
Tue 10:58:42 PM 34.6725 -85.9658 159° South 451 519 39,000  Level Atlanta Center
Tue 10:59:42 PM 34.5564 -85.9103 158° South 451 519 39,000  Level Atlanta Center
Tue 11:00:42 PM 34.4383 -85.8522 158° South 451 519 39,000  Level Atlanta Center
Tue 11:01:42 PM 34.3222 -85.8044 161° South 451 519 39,000  Level Atlanta Center
Tue 11:02:42 PM 34.2061 -85.7494 159° South 440 506 39,000  Level Atlanta Center
Tue 11:03:42 PM 34.0900 -85.6942 158° South 446 513 39,000  Level Atlanta Center
Tue 11:04:42 PM 33.9758 -85.6394 158° South 441 507 39,000  Level Atlanta Center
Tue 11:05:42 PM 33.8597 -85.5872 160° South 446 513 39,000  Level Atlanta Center
Tue 11:06:42 PM 33.7456 -85.5328 158° South 446 513 39,000  Level Atlanta Center
Tue 11:07:42 PM 33.6292 -85.4808 160° South 446 513 39,000  Level Atlanta Center
Tue 11:08:42 PM 33.5150 -85.4267 158° South 446 513 39,000  Level Atlanta Center
Tue 11:09:42 PM 33.3967 -85.3725 159° South 451 519 39,000  Level Atlanta Center
Tue 11:10:42 PM 33.2783 -85.3161 158° South 451 519 39,000  Level Atlanta Center
Tue 11:11:42 PM 33.1744 -85.2672 158° South 451 519 39,000  Level Atlanta Center
Tue 11:12:42 PM 33.0456 -85.2036 158° South 451 519 39,000  Level Atlanta Center
Tue 11:13:42 PM 32.9269 -85.1625 164° South 451 519 39,000  Level Atlanta Center
Tue 11:14:42 PM 32.8167 -85.1339 168° South 451 519 39,000  Level Atlanta Center
Tue 11:15:42 PM 32.6878 -85.0803 161° South 458 527 39,000  Level Atlanta Center
Tue 11:17:15 PM 32.5097 -85.0211 164° South 450 518 39,000  Level Jacksonville Center
Tue 11:18:15 PM 32.3875 -84.9764 163° South 450 518 39,000  Level Jacksonville Center
Tue 11:19:15 PM 32.2647 -84.9392 166° South 460 529 39,000  Level Jacksonville Center
Tue 11:20:15 PM 32.1444 -84.8997 164° South 450 518 39,000  Level Jacksonville Center
Tue 11:21:15 PM 32.0239 -84.8578 164° South 450 518 39,000  Level Jacksonville Center
Tue 11:22:15 PM 31.9033 -84.8186 165° South 450 518 39,000  Level Jacksonville Center
Tue 11:23:15 PM 31.7808 -84.7794 165° South 450 518 39,000  Level Jacksonville Center
Tue 11:24:15 PM 31.6603 -84.7403 165° South 450 518 39,000  Level Jacksonville Center
Tue 11:25:15 PM 31.5378 -84.6989 164° South 455 524 39,000  Level Jacksonville Center
Tue 11:26:15 PM 31.4175 -84.6381 157° South 455 524 39,000  Level Jacksonville Center
Tue 11:27:15 PM 31.3014 -84.5775 156° South 461 531 39,000  Level Jacksonville Center
Tue 11:28:15 PM 31.1853 -84.5147 155° Southeast 467 537 39,000  Level Jacksonville Center
Tue 11:29:15 PM 31.0669 -84.4519 156° South 467 537 39,000  Level Jacksonville Center
Tue 11:30:15 PM 30.9467 -84.3872 155° Southeast 467 537 39,000  Level Jacksonville Center
Tue 11:31:15 PM 30.8283 -84.3272 156° South 467 537 39,000  Level Jacksonville Center
Tue 11:32:15 PM 30.7122 -84.2625 154° Southeast 467 537 39,000  Level Jacksonville Center
Tue 11:33:15 PM 30.5917 -84.1981 155° Southeast 467 537 39,000  Level Jacksonville Center
Tue 11:34:15 PM 30.4650 -84.1336 156° South 462 532 39,000  Level Jacksonville Center
Tue 11:35:15 PM 30.3489 -84.0719 155° Southeast 456 525 39,000 -50 Level Jacksonville Center
Tue 11:36:15 PM 30.2283 -84.0106 156° South 456 525 38,900 -50 Descending Jacksonville Center
Tue 11:37:15 PM 30.1097 -83.9492 156° South 456 525 38,900  Level Jacksonville Center
Tue 11:38:15 PM 29.9911 -83.8878 156° South 461 531 38,900  Level Jacksonville Center
Tue 11:39:15 PM 29.8831 -83.8292 155° Southeast 466 536 38,900 50 Level Jacksonville Center
Tue 11:40:15 PM 29.7625 -83.7683 156° South 466 536 39,000 50 Climbing Jacksonville Center
Tue 11:41:15 PM 29.6439 -83.7075 156° South 466 536 39,000  Level Jacksonville Center
Tue 11:42:15 PM 29.5211 -83.6467 157° South 471 542 39,000  Level Jacksonville Center
Tue 11:43:15 PM 29.4025 -83.5839 155° Southeast 471 542 39,000 -50 Level Jacksonville Center
Tue 11:44:15 PM 29.2817 -83.5211 156° South 471 542 38,900  Descending Jacksonville Center
Tue 11:45:15 PM 29.1608 -83.4608 156° South 471 542 39,000 50 Climbing Jacksonville Center
Tue 11:46:15 PM 29.0422 -83.4033 157° South 471 542 39,000  Level Jacksonville Center
Tue 11:47:15 PM 28.9192 -83.3386 155° Southeast 476 548 39,000 -400 Level Jacksonville Center
Tue 11:48:15 PM 28.7983 -83.2764 156° South 476 548 38,200 -900 Descending Jacksonville Center
Tue 11:49:15 PM 28.6794 -83.2167 156° South 476 548 37,200 -968 Descending Jacksonville Center
Tue 11:51:21 PM 28.4342 -83.0947 156° South 465 535 35,200 -1,402 Descending Miami Center
Tue 11:52:19 PM 28.3158 -83.0364 157° South 460 529 32,900 -2,319 Descending Miami Center
Tue 11:53:20 PM 28.1994 -82.9758 155° Southeast 460 529 30,600 -2,213 Descending Miami Center
Tue 11:54:21 PM 28.0850 -82.9203 157° South 460 529 28,400 -1,866 Descending Miami Center
Tue 11:55:19 PM 27.9686 -82.8625 156° South 460 529 26,900 -763 Descending Miami Center
Tue 11:56:19 PM 27.8542 -82.8047 156° South 454 522 26,900 -248 Level Miami Center
Tue 11:57:20 PM 27.7356 -82.7447 156° South 438 504 26,400 -836 Descending Miami Center
Tue 11:58:21 PM 27.6478 -82.7003 156° South 411 473 25,200 -1,426 Descending Miami Center
Tue 11:59:22 PM 27.5517 -82.6533 157° South 388 447 23,500 -1,800 Descending Miami Center
Wed 12:00:21 AM 27.4494 -82.6014 156° South 373 429 21,600 -1,765 Descending Miami Center
Wed 12:01:21 AM 27.3531 -82.5567 158° South 373 429 20,000 -1,613 Descending Miami Center
Wed 12:02:20 AM 27.2650 -82.5128 156° South 357 411 18,400 -1,438 Descending Miami Center
Wed 12:03:22 AM 27.1811 -82.4689 155° Southeast 344 396 17,100 -1,500 Descending Miami Center
Wed 12:04:20 AM 27.0972 -82.4300 158° South 339 390 15,400 -1,119 Descending Miami Center
Wed 12:05:20 AM 27.0172 -82.3911 157° South 326 375 14,900 -950 Descending Miami Center
Wed 12:06:20 AM 26.9375 -82.3525 157° South 326 375 13,500 -1,488 Descending Miami Center
Wed 12:07:21 AM 26.8594 -82.3161 157° South 316 364 11,900 -1,587 Descending Miami Center
Wed 12:08:21 AM 26.7858 -82.2778 155° Southeast 306 352 10,300 -1,525 Descending Miami Center
Wed 12:09:19 AM 26.7211 -82.2214 142° Southeast 292 336 8,900 -1,576 Descending Miami Center
Wed 12:10:19 AM 26.6581 -82.1744 146° Southeast 286 329 7,200 -1,850 Descending Miami Center
Wed 12:11:19 AM 26.5972 -82.1275 145° Southeast 273 314 5,200 -1,082 Descending Miami Center
Wed 12:12:21 AM 26.5361 -82.0806 145° Southeast 268 308 5,000 -439 Descending Miami Center
Wed 12:13:22 AM 26.4792 -82.0389 147° Southeast 263 303 4,300 -655 Descending Miami Center
Wed 12:14:20 AM 26.4286 -81.9925 141° Southeast 250 288 3,700 -661 Descending Miami Center
Wed 12:15:20 AM 26.4431 -81.9419 72° East 185 213 3,000 -303 Descending Miami Center
Wed 12:16:19 AM 26.4639 -81.8803 69° East 173 199 3,100 -403 Climbing Miami Center
Wed 12:17:19 AM 26.4819 -81.8417 62° Northeast 168 193 2,200 5,805 Descending Miami Center
Wed 12:18:22 AM 26.4942 -81.7889 75° East 168 193 15,000 6,295 Climbing Miami Center
Wed 12:19:21 AM 26.5125 -81.7433 66° East 168 193 15,000  Level Miami Center
Wed 12:20:21 AM 26.5261 -81.7067 67° East 168 193 15,000  Level Miami Center

Login

Don't have an account? Register now (free) for customized features, flight alerts, and more!